createdAt,value
2016-10-16T00:00:01.784Z,70.42
2016-10-16T00:01:14.755Z,70.04
2016-10-16T00:02:28.409Z,70.04
2016-10-16T00:03:41.341Z,70.23
2016-10-16T00:04:54.327Z,70.14
2016-10-16T00:06:07.483Z,70.14
2016-10-16T00:07:21.065Z,70.42
2016-10-16T00:08:33.969Z,70.42
2016-10-16T00:09:46.905Z,70.62
2016-10-16T00:10:59.852Z,70.81
2016-10-16T00:12:11.807Z,70.9
2016-10-16T00:13:24.727Z,70.9
2016-10-16T00:14:38.145Z,70.62
2016-10-16T00:15:50.595Z,70.52
2016-10-16T00:17:04.040Z,70.81
2016-10-16T00:18:15.966Z,70.97
2016-10-16T00:19:27.877Z,71.06
2016-10-16T00:20:40.841Z,71.26
2016-10-16T00:21:54.353Z,71.06
2016-10-16T00:23:07.823Z,71.16
2016-10-16T00:24:20.821Z,71.36
2016-10-16T00:25:33.827Z,72.03
2016-10-16T00:26:47.362Z,71.94
2016-10-16T00:27:59.806Z,72.03
2016-10-16T00:29:12.304Z,71.94
2016-10-16T00:30:24.817Z,72.22
2016-10-16T00:31:37.248Z,72.03
2016-10-16T00:32:50.742Z,71.94
2016-10-16T00:34:03.748Z,71.94
2016-10-16T00:35:17.257Z,72.22
2016-10-16T00:36:30.258Z,71.26
2016-10-16T00:37:43.239Z,71.55
2016-10-16T00:38:55.660Z,72.03
2016-10-16T00:40:09.192Z,71.64
2016-10-16T00:41:21.699Z,72.61
2016-10-16T00:42:34.842Z,72.71
2016-10-16T00:43:48.275Z,72.61
2016-10-16T00:45:01.348Z,72.71
2016-10-16T00:46:45.758Z,72.42
2016-10-16T00:47:58.120Z,72.61
2016-10-16T00:49:10.529Z,72.71
2016-10-16T00:50:23.586Z,72.8
2016-10-16T00:51:37.058Z,72.8
2016-10-16T00:52:50.533Z,72.61
2016-10-16T00:54:03.976Z,72.13
2016-10-16T00:55:16.350Z,72.42
2016-10-16T00:56:28.671Z,72.52
2016-10-16T00:57:42.097Z,72.61
2016-10-16T00:58:54.552Z,72.61
2016-10-16T01:00:07.936Z,72.8
2016-10-16T01:01:21.493Z,72.9
2016-10-16T01:02:34.930Z,72.9
2016-10-16T01:03:47.806Z,73.19
2016-10-16T01:05:00.209Z,73.38
2016-10-16T01:06:12.584Z,73.28
2016-10-16T01:07:25.532Z,73.38
2016-10-16T01:08:38.497Z,73.15
2016-10-16T01:09:52.011Z,73.28
2016-10-16T01:11:04.385Z,73.28
2016-10-16T01:12:16.930Z,73.35
2016-10-16T01:13:29.834Z,73.35
2016-10-16T01:14:42.768Z,73.48
2016-10-16T01:15:55.750Z,73.54
2016-10-16T01:17:08.130Z,73.67
2016-10-16T01:18:20.042Z,73.93
2016-10-16T01:19:32.935Z,73.86
2016-10-16T01:20:45.881Z,73.83
2016-10-16T01:21:58.319Z,73.86
2016-10-16T01:23:11.397Z,73.48
2016-10-16T01:24:24.378Z,73.48
2016-10-16T01:25:37.791Z,73.96
2016-10-16T01:26:49.640Z,74.16
2016-10-16T01:28:03.090Z,73.67
2016-10-16T01:29:15.045Z,73.63
2016-10-16T01:30:28.026Z,73.93
2016-10-16T01:31:40.506Z,73.77
2016-10-16T01:32:54.018Z,73.48
2016-10-16T01:34:06.596Z,73.67
2016-10-16T01:35:19.544Z,73.67
2016-10-16T01:36:33.026Z,73.77
2016-10-16T01:37:46.022Z,73.63
2016-10-16T01:38:58.477Z,74.02
2016-10-16T01:40:10.939Z,74.21
2016-10-16T01:41:24.083Z,74.21
2016-10-16T01:42:37.601Z,74.41
2016-10-16T01:43:50.501Z,74.89
2016-10-16T01:45:04.341Z,74.89
2016-10-16T01:46:17.829Z,74.89
2016-10-16T01:47:31.323Z,74.99
2016-10-16T01:48:44.768Z,74.99
2016-10-16T01:49:57.692Z,75.09
2016-10-16T01:51:10.567Z,75.18
2016-10-16T01:52:24.061Z,75.47
2016-10-16T01:53:37.545Z,76.05
2016-10-16T01:54:50.486Z,75.76
2016-10-16T01:56:03.012Z,75.95
2016-10-16T01:57:16.167Z,75.76
2016-10-16T01:58:29.064Z,75.27
2016-10-16T01:59:40.476Z,76.05
2016-10-16T02:00:53.989Z,75.53
2016-10-16T02:02:06.525Z,75.43
2016-10-16T02:03:19.919Z,75.34
2016-10-16T02:04:32.348Z,76.1
2016-10-16T02:05:45.364Z,76.2
2016-10-16T02:06:58.993Z,76.1
2016-10-16T02:08:11.417Z,76.2
2016-10-16T02:09:24.939Z,76.1
2016-10-16T02:10:37.356Z,76.1
2016-10-16T02:11:49.250Z,76.2
2016-10-16T02:13:02.748Z,76.3
2016-10-16T02:14:16.137Z,76.3
2016-10-16T02:15:29.788Z,76.01
2016-10-16T02:16:42.806Z,76.1
2016-10-16T02:17:55.476Z,76.1
2016-10-16T02:19:08.946Z,76.01
2016-10-16T02:20:22.073Z,75.82
2016-10-16T02:21:35.231Z,76.4
2016-10-16T02:22:48.740Z,76.2
2016-10-16T02:24:01.690Z,76.1
2016-10-16T02:25:15.246Z,76.98
2016-10-16T02:26:27.725Z,76.68
2016-10-16T02:27:41.257Z,76.68
2016-10-16T02:28:54.820Z,76.36
2016-10-16T02:30:08.232Z,76.98
2016-10-16T02:31:21.292Z,76.75
2016-10-16T02:32:34.288Z,76.68
2016-10-16T02:33:46.726Z,76.65
2016-10-16T02:35:00.597Z,76.98
2016-10-16T02:36:13.046Z,76.78
2016-10-16T02:37:25.557Z,76.59
2016-10-16T02:38:39.084Z,76.78
2016-10-16T02:39:52.801Z,76.88
2016-10-16T02:41:06.231Z,77.07
2016-10-16T02:42:19.171Z,76.98
2016-10-16T02:43:32.644Z,77.17
2016-10-16T02:44:45.084Z,76.93
2016-10-16T02:45:58.699Z,77.33
2016-10-16T02:47:12.168Z,77.65
2016-10-16T02:48:24.065Z,77.23
2016-10-16T02:49:37.529Z,77.23
2016-10-16T02:50:51.144Z,77.42
2016-10-16T02:52:04.074Z,77.81
2016-10-16T02:53:17.064Z,77.71
2016-10-16T02:54:28.968Z,77.71
2016-10-16T02:55:41.889Z,77.9
2016-10-16T02:56:55.384Z,77.71
2016-10-16T02:58:08.847Z,77.71
2016-10-16T02:59:22.309Z,77.9
2016-10-16T03:00:35.839Z,77.81
2016-10-16T03:01:48.436Z,78.09
2016-10-16T03:03:00.950Z,78.63
2016-10-16T03:04:14.396Z,78.54
2016-10-16T03:05:27.345Z,78.58
2016-10-16T03:06:40.819Z,78.09
2016-10-16T03:07:54.109Z,78.67
2016-10-16T03:09:06.579Z,78.77
2016-10-16T03:10:18.976Z,78.58
2016-10-16T03:11:32.427Z,78.38
2016-10-16T03:12:45.578Z,78.48
2016-10-16T03:13:59.058Z,78.73
2016-10-16T03:15:12.035Z,78.48
2016-10-16T03:16:25.102Z,78.38
2016-10-16T03:17:38.083Z,78.34
2016-10-16T03:18:50.151Z,78.29
2016-10-16T03:20:03.721Z,78.34
2016-10-16T03:21:16.725Z,78.63
2016-10-16T03:22:29.690Z,78.54
2016-10-16T03:23:43.348Z,78.83
2016-10-16T03:24:55.703Z,79.06
2016-10-16T03:26:09.206Z,79.31
2016-10-16T03:27:22.114Z,79.31
2016-10-16T03:28:34.627Z,79.11
2016-10-16T03:29:47.183Z,79.11
2016-10-16T03:31:00.695Z,79.11
2016-10-16T03:32:13.631Z,79.21
2016-10-16T03:33:25.583Z,79.31
2016-10-16T03:34:38.702Z,79.6
2016-10-16T03:35:52.229Z,79.6
2016-10-16T03:37:05.177Z,79.69
2016-10-16T03:38:17.616Z,79.69
2016-10-16T03:39:31.137Z,79.69
2016-10-16T03:40:43.760Z,79.79
2016-10-16T03:41:57.267Z,79.69
2016-10-16T03:43:08.615Z,79.69
2016-10-16T03:44:21.542Z,79.69
2016-10-16T03:45:35.237Z,79.89
2016-10-16T03:46:47.834Z,80.18
2016-10-16T03:48:00.847Z,80.18
2016-10-16T03:49:12.694Z,79.89
2016-10-16T03:50:25.609Z,80.27
2016-10-16T03:51:37.615Z,80.46
2016-10-16T03:52:50.117Z,80.66
2016-10-16T03:54:03.058Z,81.43
2016-10-16T03:55:16.016Z,81.04
2016-10-16T03:56:29.643Z,81.14
2016-10-16T03:57:42.548Z,80.81
2016-10-16T03:58:55.510Z,80.81
2016-10-16T04:00:08.443Z,80.71
2016-10-16T04:01:21.420Z,81.29
2016-10-16T04:02:34.501Z,81.2
2016-10-16T04:03:48.108Z,81.01
2016-10-16T04:05:01.084Z,81.39
2016-10-16T04:06:14.028Z,81.39
2016-10-16T04:07:27.612Z,81.77
2016-10-16T04:08:40.608Z,81.58
2016-10-16T04:09:53.761Z,82.06
2016-10-16T04:11:06.724Z,81.68
2016-10-16T04:12:19.719Z,81.68
2016-10-16T04:13:32.697Z,81.58
2016-10-16T04:14:45.653Z,81.48
2016-10-16T04:15:58.628Z,81.77
2016-10-16T04:17:11.256Z,81.48
2016-10-16T04:18:23.377Z,81.77
2016-10-16T04:19:36.360Z,81.58
2016-10-16T04:20:49.290Z,82.06
2016-10-16T04:22:02.939Z,81.87
2016-10-16T04:23:15.898Z,81.58
2016-10-16T04:24:29.558Z,81.96
2016-10-16T04:25:42.509Z,82.06
2016-10-16T04:26:55.957Z,81.77
2016-10-16T04:28:08.895Z,81.77
2016-10-16T04:29:22.469Z,82.06
2016-10-16T04:30:35.922Z,82.06
2016-10-16T04:31:48.862Z,82.16
2016-10-16T04:33:02.436Z,82.45
2016-10-16T04:34:15.525Z,82.54
2016-10-16T04:35:27.918Z,82.45
2016-10-16T04:36:40.888Z,82.54
2016-10-16T04:37:53.921Z,82.45
2016-10-16T04:39:06.379Z,82.16
2016-10-16T04:40:19.504Z,81.83
2016-10-16T04:41:33.054Z,82.12
2016-10-16T04:42:45.474Z,82.79
2016-10-16T04:43:58.512Z,82.83
2016-10-16T04:45:11.496Z,82.6
2016-10-16T04:46:24.114Z,82.74
2016-10-16T04:47:36.978Z,82.64
2016-10-16T04:48:49.615Z,82.79
2016-10-16T04:50:01.524Z,82.64
2016-10-16T04:51:14.134Z,82.64
2016-10-16T04:52:27.090Z,82.6
2016-10-16T04:53:40.068Z,83.08
2016-10-16T04:54:52.551Z,83.37
2016-10-16T04:56:05.523Z,83.18
2016-10-16T04:57:18.474Z,83.28
2016-10-16T04:58:31.443Z,83.18
2016-10-16T04:59:44.946Z,83.28
2016-10-16T05:00:57.885Z,83.56
2016-10-16T05:02:11.527Z,83.47
2016-10-16T05:03:24.470Z,83.47
2016-10-16T05:04:37.488Z,83.47
2016-10-16T05:05:50.948Z,83.66
2016-10-16T05:07:03.870Z,83.37
2016-10-16T05:08:17.071Z,83.47
2016-10-16T05:09:30.520Z,84.14
2016-10-16T05:10:44.021Z,84.05
2016-10-16T05:11:57.507Z,84.53
2016-10-16T05:13:10.618Z,84.43
2016-10-16T05:14:24.060Z,84.23
2016-10-16T05:15:37.553Z,84.53
2016-10-16T05:16:50.455Z,84.33
2016-10-16T05:18:03.447Z,84.14
2016-10-16T05:19:17.034Z,84.05
2016-10-16T05:20:30.475Z,84.23
2016-10-16T05:21:44.002Z,84.53
2016-10-16T05:22:56.417Z,84.53
2016-10-16T05:24:10.264Z,84.43
2016-10-16T05:25:23.421Z,83.95
2016-10-16T05:26:36.890Z,84.14
2016-10-16T05:27:49.897Z,84.53
2016-10-16T05:29:02.886Z,84.23
2016-10-16T05:30:15.986Z,84.43
2016-10-16T05:31:28.939Z,84.19
2016-10-16T05:32:42.450Z,84.77
2016-10-16T05:33:54.850Z,84.48
2016-10-16T05:35:08.477Z,84.53
2016-10-16T05:36:21.437Z,84.62
2016-10-16T05:37:33.866Z,84.62
2016-10-16T05:38:46.258Z,84.77
2016-10-16T05:39:58.748Z,84.62
2016-10-16T05:41:11.617Z,84.91
2016-10-16T05:42:24.074Z,85.2
2016-10-16T05:43:37.527Z,84.97
2016-10-16T05:44:51.049Z,85.2
2016-10-16T05:46:04.743Z,84.87
2016-10-16T05:47:18.213Z,84.67
2016-10-16T05:48:31.232Z,85.06
2016-10-16T05:49:44.256Z,84.87
2016-10-16T05:50:57.840Z,84.77
2016-10-16T05:52:09.879Z,84.97
2016-10-16T05:53:23.480Z,84.48
2016-10-16T05:54:37.003Z,85.06
2016-10-16T05:55:49.532Z,84.97
2016-10-16T05:57:02.614Z,84.97
2016-10-16T05:58:15.536Z,85.06
2016-10-16T05:59:28.601Z,84.77
2016-10-16T06:00:41.025Z,85.06
2016-10-16T06:01:53.563Z,85.06
2016-10-16T06:03:06.679Z,85.16
2016-10-16T06:04:19.719Z,85.16
2016-10-16T06:05:33.442Z,85.64
2016-10-16T06:06:45.856Z,85.25
2016-10-16T06:07:59.499Z,85.54
2016-10-16T06:09:13.163Z,85.83
2016-10-16T06:10:26.612Z,85.93
2016-10-16T06:11:39.779Z,85.93
2016-10-16T06:12:52.731Z,85.93
2016-10-16T06:14:05.769Z,85.74
2016-10-16T06:15:18.815Z,85.54
2016-10-16T06:16:31.799Z,85.93
2016-10-16T06:17:44.421Z,85.83
2016-10-16T06:18:57.465Z,86.02
2016-10-16T06:20:11.071Z,86.12
2016-10-16T06:21:24.025Z,86.02
2016-10-16T06:22:37.099Z,85.93
2016-10-16T06:23:50.571Z,86.02
2016-10-16T06:25:03.683Z,86.22
2016-10-16T06:26:16.637Z,86.41
2016-10-16T06:27:29.026Z,86.41
2016-10-16T06:28:42.025Z,86.79
2016-10-16T06:29:55.167Z,86.89
2016-10-16T06:31:08.331Z,86.56
2016-10-16T06:32:21.389Z,86.79
2016-10-16T06:33:33.782Z,86.69
2016-10-16T06:34:46.171Z,86.89
2016-10-16T06:35:59.638Z,86.89
2016-10-16T06:37:13.141Z,87.08
2016-10-16T06:38:26.181Z,86.99
2016-10-16T06:39:38.688Z,86.79
2016-10-16T06:40:51.980Z,86.69
2016-10-16T06:42:05.064Z,86.89
2016-10-16T06:43:18.004Z,86.79
2016-10-16T06:44:30.460Z,86.69
2016-10-16T06:45:42.871Z,86.89
2016-10-16T06:46:55.817Z,86.99
2016-10-16T06:48:08.742Z,87.04
2016-10-16T06:49:21.169Z,87.08
2016-10-16T06:50:34.671Z,87.08
2016-10-16T06:51:46.732Z,87.27
2016-10-16T06:52:59.630Z,87.18
2016-10-16T06:54:13.075Z,87.27
2016-10-16T06:55:25.991Z,87.18
2016-10-16T06:56:38.922Z,87.27
2016-10-16T06:57:52.592Z,86.99
2016-10-16T06:59:06.045Z,86.99
2016-10-16T07:00:18.482Z,87.27
2016-10-16T07:01:31.983Z,87.08
2016-10-16T07:02:44.584Z,87.08
2016-10-16T07:03:58.096Z,86.89
2016-10-16T07:05:11.065Z,86.89
2016-10-16T07:06:23.491Z,86.89
2016-10-16T07:07:36.564Z,87.27
2016-10-16T07:08:50.231Z,87.08
2016-10-16T07:10:03.805Z,87.27
2016-10-16T07:11:16.267Z,87.37
2016-10-16T07:12:28.693Z,87.46
2016-10-16T07:13:41.428Z,87.08
2016-10-16T07:14:54.532Z,87.46
2016-10-16T07:16:06.391Z,87.37
2016-10-16T07:17:19.793Z,87.56
2016-10-16T07:18:31.753Z,87.33
2016-10-16T07:19:44.828Z,87.66
2016-10-16T07:20:57.282Z,87.62
2016-10-16T07:22:09.190Z,87.62
2016-10-16T07:23:22.714Z,87.42
2016-10-16T07:24:35.315Z,87.46
2016-10-16T07:25:49.214Z,87.52
2016-10-16T07:27:01.645Z,87.52
2016-10-16T07:28:15.129Z,87.76
2016-10-16T07:29:28.145Z,87.46
2016-10-16T07:30:41.823Z,87.71
2016-10-16T07:31:55.343Z,87.71
2016-10-16T07:33:08.318Z,88.1
2016-10-16T07:34:20.777Z,88.1
2016-10-16T07:35:33.371Z,87.71
2016-10-16T07:36:46.334Z,87.56
2016-10-16T07:37:58.815Z,87.62
2016-10-16T07:39:11.748Z,87.52
2016-10-16T07:40:24.151Z,87.9
2016-10-16T07:41:37.628Z,87.62
2016-10-16T07:42:50.069Z,88
2016-10-16T07:44:01.935Z,87.52
2016-10-16T07:45:14.970Z,88
2016-10-16T07:46:27.600Z,87.81
2016-10-16T07:47:40.552Z,87.71
2016-10-16T07:48:53.566Z,87.9
2016-10-16T07:50:07.097Z,87.9
2016-10-16T07:51:20.100Z,88
2016-10-16T07:52:33.760Z,87.9
2016-10-16T07:53:45.661Z,88
2016-10-16T07:54:58.589Z,87.9
2016-10-16T07:56:11.580Z,87.81
2016-10-16T07:57:25.172Z,87.71
2016-10-16T07:58:38.585Z,87.71
2016-10-16T07:59:51.579Z,87.52
2016-10-16T08:01:03.521Z,87.71
2016-10-16T08:02:15.901Z,87.71
2016-10-16T08:03:28.867Z,88.29
2016-10-16T08:04:41.849Z,88.29
2016-10-16T08:05:54.301Z,88.29
2016-10-16T08:07:07.272Z,88.39
2016-10-16T08:08:19.949Z,88.29
2016-10-16T08:09:32.920Z,88.39
2016-10-16T08:10:46.458Z,88.48
2016-10-16T08:11:59.436Z,88.77
2016-10-16T08:13:11.343Z,88.87
2016-10-16T08:14:24.244Z,88.67
2016-10-16T08:15:36.702Z,88.39
2016-10-16T08:16:49.651Z,88.96
2016-10-16T08:18:02.638Z,88.96
2016-10-16T08:19:15.707Z,88.96
2016-10-16T08:20:29.139Z,89.15
2016-10-16T08:21:42.603Z,89.15
2016-10-16T08:22:56.099Z,89.06
2016-10-16T08:24:08.535Z,88.96
2016-10-16T08:25:21.112Z,89.06
2016-10-16T08:26:33.509Z,89.15
2016-10-16T08:27:47.022Z,89.15
2016-10-16T08:29:00.475Z,89.15
2016-10-16T08:30:13.046Z,88.96
2016-10-16T08:31:26.580Z,88.96
2016-10-16T08:32:40.109Z,89.35
2016-10-16T08:33:52.516Z,88.96
2016-10-16T08:35:04.960Z,88.96
2016-10-16T08:36:18.526Z,88.77
2016-10-16T08:37:31.965Z,88.96
2016-10-16T08:38:44.915Z,88.96
2016-10-16T08:39:57.904Z,88.96
2016-10-16T08:41:10.994Z,88.96
2016-10-16T08:42:23.426Z,89.06
2016-10-16T08:43:36.405Z,88.57
2016-10-16T08:44:49.379Z,88.29
2016-10-16T08:46:01.803Z,88.67
2016-10-16T08:47:15.212Z,88.19
2016-10-16T08:48:28.173Z,88.67
2016-10-16T08:49:41.636Z,88.67
2016-10-16T08:50:54.598Z,88.39
2016-10-16T08:52:07.723Z,88.87
2016-10-16T08:53:20.699Z,88.67
2016-10-16T08:54:33.676Z,88.67
2016-10-16T08:55:47.110Z,88.57
2016-10-16T08:57:00.574Z,88.29
2016-10-16T08:58:13.090Z,88.57
2016-10-16T08:59:25.529Z,88.57
2016-10-16T09:00:38.587Z,88.57
2016-10-16T09:01:51.645Z,88.48
2016-10-16T09:03:04.924Z,88.77
2016-10-16T09:04:17.982Z,88.77
2016-10-16T09:05:31.412Z,88.57
2016-10-16T09:06:44.947Z,88.29
2016-10-16T09:07:58.456Z,88.39
2016-10-16T09:09:10.935Z,88.57
2016-10-16T09:10:23.894Z,88.39
2016-10-16T09:11:37.324Z,88.14
2016-10-16T09:12:49.287Z,88.29
2016-10-16T09:14:02.347Z,88.04
2016-10-16T09:15:14.872Z,88.43
2016-10-16T09:16:27.811Z,88.24
2016-10-16T09:17:40.198Z,87.95
2016-10-16T09:18:53.156Z,87.76
2016-10-16T09:20:06.576Z,87.95
2016-10-16T09:21:19.727Z,87.76
2016-10-16T09:22:33.284Z,87.76
2016-10-16T09:23:45.796Z,87.56
2016-10-16T09:24:59.375Z,87.56
2016-10-16T09:26:12.862Z,87.66
2016-10-16T09:27:25.757Z,87.56
2016-10-16T09:28:38.192Z,87.08
2016-10-16T09:29:50.780Z,87.37
2016-10-16T09:31:03.871Z,87.46
2016-10-16T09:32:17.308Z,87.51
2016-10-16T09:33:29.716Z,87.12
2016-10-16T09:34:43.193Z,87.32
2016-10-16T09:35:55.884Z,87.12
2016-10-16T09:37:08.231Z,86.93
2016-10-16T09:38:20.660Z,86.74
2016-10-16T09:39:33.682Z,86.83
2016-10-16T09:40:46.134Z,86.74
2016-10-16T09:41:59.820Z,86.93
2016-10-16T09:43:12.790Z,86.65
2016-10-16T09:44:26.286Z,86.88
2016-10-16T09:45:39.261Z,86.74
2016-10-16T09:46:52.907Z,86.74
2016-10-16T09:48:05.835Z,86.98
2016-10-16T09:49:18.360Z,87.17
2016-10-16T09:50:30.821Z,87.36
2016-10-16T09:51:42.224Z,87.26
2016-10-16T09:52:55.278Z,87.26
2016-10-16T09:54:07.657Z,87.26
2016-10-16T09:55:20.607Z,86.88
2016-10-16T09:56:33.578Z,86.98
2016-10-16T09:57:46.693Z,86.98
2016-10-16T09:59:00.208Z,87.26
2016-10-16T10:00:13.699Z,87.46
2016-10-16T10:01:27.169Z,86.98
2016-10-16T10:02:39.610Z,87.36
2016-10-16T10:03:53.172Z,87.17
2016-10-16T10:05:06.126Z,87.26
2016-10-16T10:06:18.038Z,87.36
2016-10-16T10:07:31.530Z,87.4
2016-10-16T10:08:45.108Z,87.4
2016-10-16T10:09:58.049Z,86.82
2016-10-16T10:11:10.497Z,87.4
2016-10-16T10:12:22.947Z,86.92
2016-10-16T10:13:34.870Z,87.12
2016-10-16T10:14:47.990Z,87.02
2016-10-16T10:16:01.466Z,86.92
2016-10-16T10:17:14.437Z,86.54
2016-10-16T10:18:27.895Z,86.54
2016-10-16T10:19:40.926Z,86.44
2016-10-16T10:20:53.873Z,86.05
2016-10-16T10:22:05.864Z,86.25
2016-10-16T10:23:19.348Z,86.15
2016-10-16T10:24:32.337Z,86.05
2016-10-16T10:25:45.877Z,85.67
2016-10-16T10:26:58.791Z,85.81
2016-10-16T10:28:11.728Z,85.47
2016-10-16T10:29:24.648Z,85.71
2016-10-16T10:30:38.273Z,85.61
2016-10-16T10:31:51.248Z,85.61
2016-10-16T10:33:04.936Z,85.33
2016-10-16T10:34:17.893Z,84.84
2016-10-16T10:35:30.890Z,85.33
2016-10-16T10:36:44.492Z,85.03
2016-10-16T10:37:57.972Z,85.03
2016-10-16T10:39:11.106Z,84.27
2016-10-16T10:40:23.474Z,84.5
2016-10-16T10:41:36.634Z,84.21
2016-10-16T10:42:49.595Z,84.5
2016-10-16T10:44:02.558Z,83.73
2016-10-16T10:45:16.029Z,83.44
2016-10-16T10:46:29.024Z,83.05
2016-10-16T10:47:42.633Z,82.76
2016-10-16T10:48:56.144Z,82.57
2016-10-16T10:50:08.541Z,82.18
2016-10-16T10:51:20.447Z,82.67
2016-10-16T10:52:32.477Z,82.18
2016-10-16T10:53:44.903Z,82.28
2016-10-16T10:54:57.891Z,82.28
2016-10-16T10:56:10.799Z,82.09
2016-10-16T10:57:24.183Z,81.45
2016-10-16T10:58:37.811Z,81.55
2016-10-16T10:59:50.290Z,81.35
2016-10-16T11:01:03.700Z,81.07
2016-10-16T11:02:16.795Z,81.35
2016-10-16T11:03:29.916Z,80.58
2016-10-16T11:04:42.908Z,80
2016-10-16T11:05:55.939Z,79.81
2016-10-16T11:07:08.946Z,79.52
2016-10-16T11:08:21.864Z,79.14
2016-10-16T11:09:34.785Z,78.31
2016-10-16T11:10:47.223Z,78.59
2016-10-16T11:12:00.667Z,78.89
2016-10-16T11:13:13.625Z,77.92
2016-10-16T11:14:27.241Z,78.31
2016-10-16T11:15:39.666Z,77.83
2016-10-16T11:16:52.110Z,77.44
2016-10-16T11:18:05.117Z,77.05
2016-10-16T11:19:18.110Z,75.93
2016-10-16T11:20:31.607Z,76.22
2016-10-16T11:21:45.300Z,75.64
2016-10-16T11:22:58.273Z,75.06
2016-10-16T11:24:11.787Z,75.45
2016-10-16T11:25:24.921Z,74.96
2016-10-16T11:26:38.431Z,74.58
2016-10-16T11:27:51.890Z,74.23
2016-10-16T11:29:05.393Z,73.74
2016-10-16T11:30:18.367Z,73.94
2016-10-16T11:31:31.832Z,73.55
2016-10-16T11:32:44.265Z,73.49
2016-10-16T11:33:57.260Z,72.52
2016-10-16T11:35:10.801Z,72.14
2016-10-16T11:36:24.419Z,71.94
2016-10-16T11:37:37.901Z,71.75
2016-10-16T11:38:51.374Z,71.17
2016-10-16T11:40:04.279Z,70.78
2016-10-16T11:41:17.736Z,70.98
2016-10-16T11:42:31.279Z,70.24
2016-10-16T11:43:44.709Z,70.43
2016-10-16T11:44:58.164Z,69.37
2016-10-16T11:46:11.751Z,69.27
2016-10-16T11:47:24.168Z,68.79
2016-10-16T11:48:37.621Z,68.33
2016-10-16T11:49:51.178Z,67.56
2016-10-16T11:51:03.092Z,66.98
2016-10-16T11:52:15.683Z,67.08
2016-10-16T11:53:29.103Z,67.18
2016-10-16T11:54:42.011Z,66.78
2016-10-16T11:55:54.459Z,66.2
2016-10-16T11:57:06.433Z,66.4
2016-10-16T11:58:19.454Z,65.66
2016-10-16T11:59:31.908Z,65.85
2016-10-16T12:00:44.383Z,65.27
2016-10-16T12:01:56.872Z,64.59
2016-10-16T12:03:09.912Z,63.92
2016-10-16T12:04:22.318Z,64.69
2016-10-16T12:05:35.292Z,63.85
2016-10-16T12:06:48.727Z,64.04
2016-10-16T12:08:01.690Z,63.07
2016-10-16T12:09:15.192Z,63.17
2016-10-16T12:10:28.270Z,62.1
2016-10-16T12:11:40.723Z,61.46
2016-10-16T12:12:54.180Z,61.75
2016-10-16T12:14:07.724Z,60.58
2016-10-16T12:15:21.209Z,60.3
2016-10-16T12:16:34.195Z,59.91
2016-10-16T12:17:47.125Z,60.13
2016-10-16T12:19:00.597Z,59.26
2016-10-16T12:20:13.590Z,58.87
2016-10-16T12:21:26.569Z,58.09
2016-10-16T12:22:39.529Z,58
2016-10-16T12:23:52.458Z,57.51
2016-10-16T12:25:05.608Z,57.64
2016-10-16T12:26:18.533Z,57.54
2016-10-16T12:27:32.004Z,57.25
2016-10-16T12:28:45.443Z,56.67
2016-10-16T12:29:58.953Z,56.57
2016-10-16T12:31:12.042Z,56.7
2016-10-16T12:32:25.585Z,56.21
2016-10-16T12:33:36.988Z,55.14
2016-10-16T12:34:49.930Z,54.68
2016-10-16T12:36:02.432Z,55.36
2016-10-16T12:37:15.915Z,54.29
2016-10-16T12:38:29.234Z,54.49
2016-10-16T12:39:42.281Z,54.29
2016-10-16T12:40:55.252Z,53.06
2016-10-16T12:42:07.688Z,53.16
2016-10-16T12:43:20.628Z,53.16
2016-10-16T12:44:33.614Z,52.28
2016-10-16T12:45:46.592Z,52.09
2016-10-16T12:47:00.267Z,51.89
2016-10-16T12:48:13.830Z,51.99
2016-10-16T12:49:27.021Z,51.53
2016-10-16T12:50:39.993Z,51.72
2016-10-16T12:51:52.424Z,52.01
2016-10-16T12:53:04.852Z,51.72
2016-10-16T12:54:18.276Z,49.61
2016-10-16T12:55:31.773Z,49.19
2016-10-16T12:56:45.273Z,49.02
2016-10-16T12:57:58.801Z,49.41
2016-10-16T12:59:12.278Z,48.73
2016-10-16T13:00:25.299Z,48.36
2016-10-16T13:01:37.732Z,48.07
2016-10-16T13:02:50.819Z,47
2016-10-16T13:04:03.269Z,45.84
2016-10-16T13:05:16.754Z,46.25
2016-10-16T13:06:29.148Z,46.25
2016-10-16T13:07:42.099Z,45.76
2016-10-16T13:08:55.154Z,45.28
2016-10-16T13:10:08.846Z,45.18
2016-10-16T13:11:21.884Z,44.71
2016-10-16T13:12:35.518Z,44.71
2016-10-16T13:13:47.955Z,44.62
2016-10-16T13:15:01.111Z,44.62
2016-10-16T13:16:14.258Z,44.42
2016-10-16T13:17:26.923Z,43.76
2016-10-16T13:18:40.453Z,43.18
2016-10-16T13:19:53.533Z,43.27
2016-10-16T13:21:07.001Z,43.37
2016-10-16T13:22:20.434Z,43.18
2016-10-16T13:23:33.420Z,42.8
2016-10-16T13:24:46.404Z,42.9
2016-10-16T13:25:59.551Z,42.9
2016-10-16T13:27:10.915Z,43
2016-10-16T13:28:23.350Z,42.8
2016-10-16T13:29:35.757Z,43.39
2016-10-16T13:30:48.824Z,42.32
2016-10-16T13:32:02.346Z,42.32
2016-10-16T13:33:15.898Z,41.73
2016-10-16T13:34:29.379Z,42.02
2016-10-16T13:35:41.779Z,42
2016-10-16T13:36:55.591Z,42.41
2016-10-16T13:38:09.051Z,42.61
2016-10-16T13:39:22.013Z,42.61
2016-10-16T13:40:35.025Z,42.32
2016-10-16T13:41:48.619Z,42.12
2016-10-16T13:43:01.079Z,42.32
2016-10-16T13:44:14.627Z,42.12
2016-10-16T13:45:27.086Z,41.83
2016-10-16T13:46:40.103Z,42.32
2016-10-16T13:47:53.654Z,42.63
2016-10-16T13:49:06.086Z,42.12
2016-10-16T13:50:18.580Z,41.95
2016-10-16T13:51:32.081Z,42.54
2016-10-16T13:52:45.596Z,42.05
2016-10-16T13:53:58.063Z,41.95
2016-10-16T13:55:09.963Z,41.75
2016-10-16T13:56:22.987Z,41.66
2016-10-16T13:57:35.971Z,41.75
2016-10-16T13:58:48.642Z,41.66
2016-10-16T14:00:02.099Z,41.77
2016-10-16T14:01:15.576Z,41.58
2016-10-16T14:02:29.124Z,41.19
2016-10-16T14:03:41.146Z,40.41
2016-10-16T14:04:54.274Z,40.89
2016-10-16T14:06:07.748Z,41.09
2016-10-16T14:07:20.331Z,40.53
2016-10-16T14:08:32.292Z,40.23
2016-10-16T14:09:45.420Z,40.33
2016-10-16T14:10:57.882Z,39.36
2016-10-16T14:12:11.049Z,39.26
2016-10-16T14:13:24.554Z,39.06
2016-10-16T14:14:37.587Z,38.69
2016-10-16T14:15:50.040Z,38.3
2016-10-16T14:17:02.498Z,38.4
2016-10-16T14:18:15.137Z,37.83
2016-10-16T14:19:27.613Z,37.73
2016-10-16T14:20:39.871Z,36.79
2016-10-16T14:21:53.351Z,35.24
2016-10-16T14:23:06.335Z,33.61
2016-10-16T14:24:19.364Z,33.23
2016-10-16T14:25:32.456Z,32.27
2016-10-16T14:26:45.448Z,31.99
2016-10-16T14:27:58.527Z,31.2
2016-10-16T14:29:11.408Z,30.73
2016-10-16T14:30:24.591Z,30.45
2016-10-16T14:31:37.058Z,29.58
2016-10-16T14:32:50.011Z,28.42
2016-10-16T14:34:02.959Z,27.95
2016-10-16T14:35:16.493Z,27.37
2016-10-16T14:36:29.618Z,27.37
2016-10-16T14:37:41.054Z,26.2
2016-10-16T14:38:53.967Z,26.41
2016-10-16T14:40:06.969Z,26.12
2016-10-16T14:41:19.417Z,26.21
2016-10-16T14:42:33.012Z,25.65
2016-10-16T14:43:46.701Z,25.67
2016-10-16T14:44:58.671Z,24.5
2016-10-16T14:46:11.630Z,23.93
2016-10-16T14:47:24.364Z,22.75
2016-10-16T14:48:37.350Z,22.48
2016-10-16T14:49:50.286Z,20.32
2016-10-16T14:51:03.264Z,19.44
2016-10-16T14:52:16.900Z,18.16
2016-10-16T14:53:29.384Z,18.75
2016-10-16T14:54:41.844Z,19.15
2016-10-16T14:55:54.304Z,18.65
2016-10-16T14:57:07.800Z,18.37
2016-10-16T14:58:20.341Z,18.18
2016-10-16T14:59:33.857Z,17.98
2016-10-16T15:00:46.816Z,18.08
2016-10-16T15:01:59.726Z,17.4
2016-10-16T15:03:11.599Z,16.8
2016-10-16T15:04:24.575Z,16.8
2016-10-16T15:05:36.996Z,17.88
2016-10-16T15:06:50.042Z,17.97
2016-10-16T15:08:03.590Z,18.16
2016-10-16T15:09:16.099Z,18.07
2016-10-16T15:10:28.520Z,18.27
2016-10-16T15:11:41.524Z,17
2016-10-16T15:12:53.991Z,16.61
2016-10-16T15:14:06.487Z,16.12
2016-10-16T15:15:19.418Z,15.73
2016-10-16T15:16:32.346Z,15.83
2016-10-16T15:17:45.807Z,15.53
2016-10-16T15:18:57.177Z,14.95
2016-10-16T15:20:10.799Z,14.26
2016-10-16T15:21:23.870Z,14.17
2016-10-16T15:22:36.780Z,14.07
2016-10-16T15:23:49.796Z,13.19
2016-10-16T15:25:02.774Z,13.2
2016-10-16T15:26:15.727Z,12.11
2016-10-16T15:27:28.800Z,12.41
2016-10-16T15:28:41.343Z,12.31
2016-10-16T15:29:54.346Z,12.01
2016-10-16T15:31:07.974Z,11.61
2016-10-16T15:32:21.489Z,11.41
2016-10-16T15:33:34.437Z,11.9
2016-10-16T15:34:47.969Z,12.4
2016-10-16T15:36:01.529Z,12
2016-10-16T15:37:15.042Z,12.01
2016-10-16T15:38:28.560Z,11.32
2016-10-16T15:39:42.088Z,10.83
2016-10-16T15:40:55.614Z,10.84
2016-10-16T15:42:08.143Z,9.84
2016-10-16T15:43:21.662Z,9.55